This is the latest recevied weather packets stored in our database for station/object F1ZUI-13. If no packets are shown the sender has not sent any weather packets the latest 1 day(s).
| Time | Temp. | Humidity | Pressure | Rain* | Wind** | Luminosity | Snow |
|---|---|---|---|---|---|---|---|
| 1778009094 | 8.89° C | - | 1014.6 hPa | - | 4.92 m/s, 270° | - | - |
| 1778008481 | 8.89° C | - | 1014.6 hPa | - | 2.24 m/s, 270° | - | - |
| 1778007867 | 8.89° C | - | 1014.5 hPa | - | 3.58 m/s, 225° | - | - |
| 1778007253 | 9.44° C | - | 1014.5 hPa | - | 4.47 m/s, 225° | - | - |
| 1778006640 | 9.44° C | - | 1014.5 hPa | - | 5.36 m/s, 270° | - | - |
| 1778006026 | 10° C | - | 1014.6 hPa | - | 2.68 m/s, 270° | - | - |
| 1778005412 | 10.56° C | - | 1014.6 hPa | - | 1.79 m/s, 225° | - | - |
| 1778004799 | 11.11° C | - | 1014.6 hPa | - | 2.24 m/s, 225° | - | - |
| 1778004185 | 11.11° C | - | 1014.6 hPa | - | 1.79 m/s, 225° | - | - |
| 1778003572 | 11.67° C | - | 1014.7 hPa | - | 0.89 m/s, 315° | - | - |
| 1778002958 | 11.11° C | - | 1014.7 hPa | - | 2.24 m/s, 270° | - | - |
| 1778002344 | 11.67° C | - | 1014.6 hPa | - | 1.79 m/s, 270° | - | - |
| 1778001731 | 11.67° C | - | 1014.6 hPa | - | 3.13 m/s, 270° | - | - |
| 1778001117 | 12.22° C | - | 1014.6 hPa | - | 1.79 m/s, 270° | - | - |
| 1777999890 | 13.89° C | - | 1014.8 hPa | - | 0.89 m/s, 225° | - | - |
| 1777997435 | 14.44° C | - | 1014.7 hPa | - | 1.34 m/s, 0° | - | - |
| 1777996822 | 15° C | - | 1014.8 hPa | - | 1.79 m/s, 270° | - | - |
| 1777996208 | 13.89° C | - | 1014.9 hPa | - | 1.79 m/s, 315° | - | - |
| 1777995594 | 13.89° C | - | 1014.9 hPa | - | 1.79 m/s, 270° | - | - |
| 1777994367 | 12.22° C | - | 1014.9 hPa | - | 0.89 m/s, 225° | - | - |
| 1777993753 | 11.67° C | - | 1015 hPa | - | 4.02 m/s, 315° | - | - |
| 1777993140 | 11.67° C | - | 1015 hPa | - | 2.24 m/s, 225° | - | - |
| 1777992526 | 12.22° C | - | 1014.9 hPa | - | 2.24 m/s, 270° | - | - |
| 1777991912 | 11.11° C | - | 1014.9 hPa | - | 4.02 m/s, 315° | - | - |
| 1777991299 | 11.11° C | - | 1014.6 hPa | - | 4.02 m/s, 0° | - | - |
* Rain since midnight (hover to see other rain measurements)
** Current wind speed in m/s (hover to see current wind gust speed)